sensor_id;sensor_type;location;lat;lon;timestamp;pressure;altitude;pressure_sealevel;temperature;humidity
66742;BME280;53654;54.152;19.432;2023-03-13T00:01:30;100832.77;;;1.70;59.03
66742;BME280;53654;54.152;19.432;2023-03-13T00:03:59;100831.88;;;1.69;59.22
66742;BME280;53654;54.152;19.432;2023-03-13T00:06:35;100829.98;;;1.74;59.49
66742;BME280;53654;54.152;19.432;2023-03-13T00:09:05;100820.98;;;1.79;59.39
66742;BME280;53654;54.152;19.432;2023-03-13T00:11:33;100812.73;;;1.79;59.40
66742;BME280;53654;54.152;19.432;2023-03-13T00:14:02;100811.02;;;1.79;59.42
66742;BME280;53654;54.152;19.432;2023-03-13T00:16:31;100807.59;;;1.80;59.27
66742;BME280;53654;54.152;19.432;2023-03-13T00:19:01;100800.83;;;1.78;59.63
66742;BME280;53654;54.152;19.432;2023-03-13T00:21:30;100795.60;;;1.75;59.67
66742;BME280;53654;54.152;19.432;2023-03-13T00:23:59;100790.91;;;1.73;59.88
66742;BME280;53654;54.152;19.432;2023-03-13T00:26:28;100781.02;;;1.71;59.99
66742;BME280;53654;54.152;19.432;2023-03-13T00:28:58;100777.15;;;1.68;60.14
66742;BME280;53654;54.152;19.432;2023-03-13T00:31:30;100770.09;;;1.67;60.41
66742;BME280;53654;54.152;19.432;2023-03-13T00:34:00;100764.36;;;1.65;60.31
66742;BME280;53654;54.152;19.432;2023-03-13T00:36:32;100757.15;;;1.66;60.55
66742;BME280;53654;54.152;19.432;2023-03-13T00:39:03;100755.07;;;1.65;60.60
66742;BME280;53654;54.152;19.432;2023-03-13T00:41:35;100749.98;;;1.61;60.49
66742;BME280;53654;54.152;19.432;2023-03-13T00:44:04;100733.95;;;1.60;60.66
66742;BME280;53654;54.152;19.432;2023-03-13T00:46:33;100723.65;;;1.60;60.70
66742;BME280;53654;54.152;19.432;2023-03-13T00:49:01;100723.92;;;1.58;60.67
66742;BME280;53654;54.152;19.432;2023-03-13T00:51:29;100727.88;;;1.57;60.92
66742;BME280;53654;54.152;19.432;2023-03-13T00:53:58;100732.00;;;1.57;61.08
66742;BME280;53654;54.152;19.432;2023-03-13T00:56:30;100737.15;;;1.57;61.07
66742;BME280;53654;54.152;19.432;2023-03-13T00:58:59;100728.80;;;1.60;61.09
66742;BME280;53654;54.152;19.432;2023-03-13T01:01:31;100724.34;;;1.60;61.15
66742;BME280;53654;54.152;19.432;2023-03-13T01:04:02;100726.27;;;1.61;61.12
66742;BME280;53654;54.152;19.432;2023-03-13T01:06:33;100729.86;;;1.61;61.25
66742;BME280;53654;54.152;19.432;2023-03-13T01:09:04;100725.80;;;1.57;61.30
66742;BME280;53654;54.152;19.432;2023-03-13T01:11:35;100731.46;;;1.57;61.38
66742;BME280;53654;54.152;19.432;2023-03-13T01:14:12;100734.79;;;1.52;61.57
66742;BME280;53654;54.152;19.432;2023-03-13T01:16:41;100732.05;;;1.46;61.88
66742;BME280;53654;54.152;19.432;2023-03-13T01:19:12;100730.42;;;1.44;62.19
66742;BME280;53654;54.152;19.432;2023-03-13T01:21:41;100718.88;;;1.43;62.38
66742;BME280;53654;54.152;19.432;2023-03-13T01:24:10;100713.20;;;1.43;62.42
66742;BME280;53654;54.152;19.432;2023-03-13T01:26:38;100704.25;;;1.43;62.58
66742;BME280;53654;54.152;19.432;2023-03-13T01:29:06;100705.48;;;1.44;62.80
66742;BME280;53654;54.152;19.432;2023-03-13T01:31:35;100703.21;;;1.42;62.81
66742;BME280;53654;54.152;19.432;2023-03-13T01:34:06;100707.48;;;1.42;63.01
66742;BME280;53654;54.152;19.432;2023-03-13T01:36:36;100699.47;;;1.38;63.26
66742;BME280;53654;54.152;19.432;2023-03-13T01:39:05;100684.84;;;1.37;63.30
66742;BME280;53654;54.152;19.432;2023-03-13T01:41:34;100683.89;;;1.34;63.61
66742;BME280;53654;54.152;19.432;2023-03-13T01:44:02;100681.17;;;1.29;63.90
66742;BME280;53654;54.152;19.432;2023-03-13T01:46:36;100668.77;;;1.27;64.07
66742;BME280;53654;54.152;19.432;2023-03-13T01:49:29;100664.24;;;1.25;64.35
66742;BME280;53654;54.152;19.432;2023-03-13T01:52:25;100655.06;;;1.23;64.35
66742;BME280;53654;54.152;19.432;2023-03-13T01:55:11;100648.95;;;1.19;64.84
66742;BME280;53654;54.152;19.432;2023-03-13T01:57:47;100646.10;;;1.22;64.75
66742;BME280;53654;54.152;19.432;2023-03-13T02:00:23;100641.71;;;1.25;64.76
66742;BME280;53654;54.152;19.432;2023-03-13T02:02:54;100636.15;;;1.23;65.24
66742;BME280;53654;54.152;19.432;2023-03-13T02:05:26;100634.77;;;1.22;65.17
66742;BME280;53654;54.152;19.432;2023-03-13T02:08:53;100632.51;;;1.21;65.32
66742;BME280;53654;54.152;19.432;2023-03-13T02:13:57;100609.65;;;1.09;66.24
66742;BME280;53654;54.152;19.432;2023-03-13T02:16:26;100603.85;;;1.10;66.25
66742;BME280;53654;54.152;19.432;2023-03-13T02:18:54;100596.05;;;1.08;66.61
66742;BME280;53654;54.152;19.432;2023-03-13T02:21:37;100594.55;;;1.09;66.33
66742;BME280;53654;54.152;19.432;2023-03-13T02:26:48;100586.27;;;1.02;66.84
66742;BME280;53654;54.152;19.432;2023-03-13T02:29:16;100596.14;;;1.05;67.00
66742;BME280;53654;54.152;19.432;2023-03-13T02:31:46;100602.58;;;1.08;66.76
66742;BME280;53654;54.152;19.432;2023-03-13T02:34:18;100608.83;;;1.10;66.88
66742;BME280;53654;54.152;19.432;2023-03-13T02:36:48;100609.87;;;1.11;67.06
66742;BME280;53654;54.152;19.432;2023-03-13T02:39:19;100616.66;;;1.14;67.08
66742;BME280;53654;54.152;19.432;2023-03-13T02:41:51;100628.15;;;1.19;66.72
66742;BME280;53654;54.152;19.432;2023-03-13T02:44:19;100628.80;;;1.24;66.62
66742;BME280;53654;54.152;19.432;2023-03-13T02:46:49;100629.79;;;1.29;66.75
66742;BME280;53654;54.152;19.432;2023-03-13T02:49:29;100633.30;;;1.31;66.80
66742;BME280;53654;54.152;19.432;2023-03-13T02:52:09;100633.05;;;1.35;66.78
66742;BME280;53654;54.152;19.432;2023-03-13T02:54:41;100630.38;;;1.38;66.95
66742;BME280;53654;54.152;19.432;2023-03-13T02:57:11;100629.45;;;1.42;66.95
66742;BME280;53654;54.152;19.432;2023-03-13T02:59:40;100628.58;;;1.48;66.82
66742;BME280;53654;54.152;19.432;2023-03-13T03:02:08;100625.02;;;1.56;66.57
66742;BME280;53654;54.152;19.432;2023-03-13T03:04:36;100625.70;;;1.63;66.41
66742;BME280;53654;54.152;19.432;2023-03-13T03:07:04;100624.61;;;1.68;66.31
66742;BME280;53654;54.152;19.432;2023-03-13T03:09:33;100623.67;;;1.70;66.23
66742;BME280;53654;54.152;19.432;2023-03-13T03:12:04;100624.59;;;1.73;66.21
66742;BME280;53654;54.152;19.432;2023-03-13T03:14:33;100622.36;;;1.74;66.10
66742;BME280;53654;54.152;19.432;2023-03-13T03:17:01;100621.19;;;1.75;66.36
66742;BME280;53654;54.152;19.432;2023-03-13T03:19:29;100620.45;;;1.79;65.98
66742;BME280;53654;54.152;19.432;2023-03-13T03:21:57;100617.41;;;1.82;66.15
66742;BME280;53654;54.152;19.432;2023-03-13T03:24:25;100616.55;;;1.82;66.17
66742;BME280;53654;54.152;19.432;2023-03-13T03:26:53;100615.15;;;1.81;66.48
66742;BME280;53654;54.152;19.432;2023-03-13T03:29:28;100604.39;;;1.84;66.20
66742;BME280;53654;54.152;19.432;2023-03-13T03:31:56;100609.77;;;1.85;66.24
66742;BME280;53654;54.152;19.432;2023-03-13T03:34:24;100606.39;;;1.88;66.25
66742;BME280;53654;54.152;19.432;2023-03-13T03:36:52;100605.27;;;1.91;66.52
66742;BME280;53654;54.152;19.432;2023-03-13T03:39:20;100605.48;;;1.93;66.44
66742;BME280;53654;54.152;19.432;2023-03-13T03:41:48;100607.99;;;1.98;66.19
66742;BME280;53654;54.152;19.432;2023-03-13T03:44:17;100602.88;;;2.00;66.29
66742;BME280;53654;54.152;19.432;2023-03-13T03:46:55;100595.80;;;1.99;66.67
66742;BME280;53654;54.152;19.432;2023-03-13T03:49:24;100582.26;;;2.00;66.80
66742;BME280;53654;54.152;19.432;2023-03-13T03:51:53;100575.66;;;2.06;66.47
66742;BME280;53654;54.152;19.432;2023-03-13T03:54:26;100573.78;;;2.06;66.62
66742;BME280;53654;54.152;19.432;2023-03-13T03:56:54;100568.77;;;2.05;66.92
66742;BME280;53654;54.152;19.432;2023-03-13T03:59:22;100566.21;;;2.06;66.73
66742;BME280;53654;54.152;19.432;2023-03-13T04:01:56;100570.40;;;2.09;66.80
66742;BME280;53654;54.152;19.432;2023-03-13T04:04:26;100572.99;;;2.09;66.58
66742;BME280;53654;54.152;19.432;2023-03-13T04:07:08;100566.55;;;2.06;67.16
66742;BME280;53654;54.152;19.432;2023-03-13T04:09:36;100561.91;;;2.06;67.23
66742;BME280;53654;54.152;19.432;2023-03-13T04:12:07;100550.60;;;2.08;67.30
66742;BME280;53654;54.152;19.432;2023-03-13T04:14:39;100544.57;;;2.08;67.42
66742;BME280;53654;54.152;19.432;2023-03-13T04:17:09;100545.90;;;2.06;67.57
66742;BME280;53654;54.152;19.432;2023-03-13T04:19:38;100541.19;;;2.11;67.30
66742;BME280;53654;54.152;19.432;2023-03-13T04:22:06;100536.98;;;2.08;67.64
66742;BME280;53654;54.152;19.432;2023-03-13T04:24:35;100532.12;;;2.05;67.90
66742;BME280;53654;54.152;19.432;2023-03-13T04:27:03;100527.83;;;2.05;68.02
66742;BME280;53654;54.152;19.432;2023-03-13T04:29:33;100531.77;;;2.05;68.30
66742;BME280;53654;54.152;19.432;2023-03-13T04:32:18;100532.28;;;2.05;68.12
66742;BME280;53654;54.152;19.432;2023-03-13T04:35:06;100535.20;;;2.05;68.24
66742;BME280;53654;54.152;19.432;2023-03-13T04:37:53;100534.11;;;2.02;68.37
66742;BME280;53654;54.152;19.432;2023-03-13T04:40:47;100521.52;;;2.01;68.56
66742;BME280;53654;54.152;19.432;2023-03-13T04:43:27;100519.48;;;2.01;68.91
66742;BME280;53654;54.152;19.432;2023-03-13T04:46:14;100510.65;;;2.00;69.14
66742;BME280;53654;54.152;19.432;2023-03-13T04:49:15;100506.61;;;1.95;69.69
66742;BME280;53654;54.152;19.432;2023-03-13T04:51:55;100497.85;;;1.96;69.78
66742;BME280;53654;54.152;19.432;2023-03-13T04:54:23;100491.19;;;1.98;69.91
66742;BME280;53654;54.152;19.432;2023-03-13T04:56:58;100486.90;;;1.99;70.01
66742;BME280;53654;54.152;19.432;2023-03-13T04:59:26;100479.69;;;2.00;70.50
66742;BME280;53654;54.152;19.432;2023-03-13T05:02:13;100481.64;;;2.03;70.18
66742;BME280;53654;54.152;19.432;2023-03-13T05:05:08;100472.85;;;2.01;70.43
66742;BME280;53654;54.152;19.432;2023-03-13T05:07:54;100468.17;;;2.00;71.19
66742;BME280;53654;54.152;19.432;2023-03-13T05:10:51;100464.77;;;2.02;70.84
66742;BME280;53654;54.152;19.432;2023-03-13T05:13:45;100461.02;;;2.03;71.14
66742;BME280;53654;54.152;19.432;2023-03-13T05:16:31;100461.45;;;2.08;71.40
66742;BME280;53654;54.152;19.432;2023-03-13T05:19:18;100456.23;;;2.13;71.46
66742;BME280;53654;54.152;19.432;2023-03-13T05:22:01;100452.23;;;2.11;71.67
66742;BME280;53654;54.152;19.432;2023-03-13T05:24:48;100446.91;;;2.12;71.81
66742;BME280;53654;54.152;19.432;2023-03-13T05:27:31;100435.23;;;2.12;72.17
66742;BME280;53654;54.152;19.432;2023-03-13T05:30:23;100430.56;;;2.11;72.53
66742;BME280;53654;54.152;19.432;2023-03-13T05:33:10;100425.94;;;2.12;72.92
66742;BME280;53654;54.152;19.432;2023-03-13T05:35:46;100418.72;;;2.13;73.54
66742;BME280;53654;54.152;19.432;2023-03-13T05:38:28;100421.69;;;2.15;73.87
66742;BME280;53654;54.152;19.432;2023-03-13T05:41:19;100426.52;;;2.16;74.28
66742;BME280;53654;54.152;19.432;2023-03-13T05:44:13;100426.09;;;2.20;74.65
66742;BME280;53654;54.152;19.432;2023-03-13T05:47:12;100429.46;;;2.25;74.72
66742;BME280;53654;54.152;19.432;2023-03-13T05:50:08;100429.19;;;2.29;74.88
66742;BME280;53654;54.152;19.432;2023-03-13T05:52:55;100425.52;;;2.34;75.01
66742;BME280;53654;54.152;19.432;2023-03-13T05:55:52;100419.22;;;2.38;75.31
66742;BME280;53654;54.152;19.432;2023-03-13T05:58:41;100414.27;;;2.41;75.29
66742;BME280;53654;54.152;19.432;2023-03-13T06:01:31;100413.24;;;2.41;75.87
66742;BME280;53654;54.152;19.432;2023-03-13T06:04:08;100410.08;;;2.46;75.68
66742;BME280;53654;54.152;19.432;2023-03-13T06:06:37;100409.48;;;2.51;75.79
66742;BME280;53654;54.152;19.432;2023-03-13T06:09:05;100401.96;;;2.55;75.75
66742;BME280;53654;54.152;19.432;2023-03-13T06:11:34;100398.88;;;2.55;75.70
66742;BME280;53654;54.152;19.432;2023-03-13T06:14:04;100400.12;;;2.57;76.00
66742;BME280;53654;54.152;19.432;2023-03-13T06:16:37;100399.11;;;2.58;76.15
66742;BME280;53654;54.152;19.432;2023-03-13T06:19:17;100407.39;;;2.59;76.21
66742;BME280;53654;54.152;19.432;2023-03-13T06:21:45;100407.09;;;2.62;76.44
66742;BME280;53654;54.152;19.432;2023-03-13T06:24:14;100404.72;;;2.64;76.59
66742;BME280;53654;54.152;19.432;2023-03-13T06:26:42;100404.44;;;2.67;76.67
66742;BME280;53654;54.152;19.432;2023-03-13T06:29:10;100399.98;;;2.68;76.75
66742;BME280;53654;54.152;19.432;2023-03-13T06:31:38;100397.80;;;2.72;76.92
66742;BME280;53654;54.152;19.432;2023-03-13T06:34:10;100394.06;;;2.75;76.84
66742;BME280;53654;54.152;19.432;2023-03-13T06:36:38;100390.48;;;2.76;76.92
66742;BME280;53654;54.152;19.432;2023-03-13T06:39:06;100386.66;;;2.75;77.19
66742;BME280;53654;54.152;19.432;2023-03-13T06:41:35;100379.98;;;2.78;77.46
66742;BME280;53654;54.152;19.432;2023-03-13T06:44:04;100374.52;;;2.80;77.36
66742;BME280;53654;54.152;19.432;2023-03-13T06:46:32;100368.54;;;2.83;77.62
66742;BME280;53654;54.152;19.432;2023-03-13T06:49:00;100369.75;;;2.84;77.73
66742;BME280;53654;54.152;19.432;2023-03-13T06:51:31;100361.85;;;2.85;77.88
66742;BME280;53654;54.152;19.432;2023-03-13T06:54:01;100357.91;;;2.86;78.06
66742;BME280;53654;54.152;19.432;2023-03-13T06:56:29;100352.23;;;2.87;78.36
66742;BME280;53654;54.152;19.432;2023-03-13T06:58:57;100352.77;;;2.87;78.52
66742;BME280;53654;54.152;19.432;2023-03-13T07:01:26;100350.54;;;2.88;78.58
66742;BME280;53654;54.152;19.432;2023-03-13T07:03:55;100352.66;;;2.92;78.69
66742;BME280;53654;54.152;19.432;2023-03-13T07:06:23;100355.30;;;2.96;78.73
66742;BME280;53654;54.152;19.432;2023-03-13T07:08:51;100352.94;;;2.99;79.06
66742;BME280;53654;54.152;19.432;2023-03-13T07:11:19;100355.56;;;3.02;78.78
66742;BME280;53654;54.152;19.432;2023-03-13T07:13:47;100353.55;;;3.05;79.02
66742;BME280;53654;54.152;19.432;2023-03-13T07:16:15;100347.69;;;3.05;79.28
66742;BME280;53654;54.152;19.432;2023-03-13T07:18:45;100341.35;;;3.07;79.23
66742;BME280;53654;54.152;19.432;2023-03-13T07:21:13;100331.25;;;3.11;79.51
66742;BME280;53654;54.152;19.432;2023-03-13T07:23:41;100331.68;;;3.17;79.52
66742;BME280;53654;54.152;19.432;2023-03-13T07:26:14;100321.27;;;3.24;79.63
66742;BME280;53654;54.152;19.432;2023-03-13T07:28:42;100318.55;;;3.27;79.84
66742;BME280;53654;54.152;19.432;2023-03-13T07:31:18;100317.19;;;3.29;79.78
66742;BME280;53654;54.152;19.432;2023-03-13T07:33:47;100308.23;;;3.29;79.90
66742;BME280;53654;54.152;19.432;2023-03-13T07:36:15;100302.55;;;3.29;80.23
66742;BME280;53654;54.152;19.432;2023-03-13T07:38:49;100302.08;;;3.32;80.26
66742;BME280;53654;54.152;19.432;2023-03-13T07:41:19;100298.15;;;3.36;80.27
66742;BME280;53654;54.152;19.432;2023-03-13T07:43:47;100298.89;;;3.40;80.46
66742;BME280;53654;54.152;19.432;2023-03-13T07:46:17;100296.36;;;3.43;80.70
66742;BME280;53654;54.152;19.432;2023-03-13T07:48:47;100289.84;;;3.46;80.98
66742;BME280;53654;54.152;19.432;2023-03-13T07:51:21;100285.91;;;3.49;80.98
66742;BME280;53654;54.152;19.432;2023-03-13T07:54:07;100282.31;;;3.51;81.13
66742;BME280;53654;54.152;19.432;2023-03-13T07:56:35;100278.05;;;3.54;81.26
66742;BME280;53654;54.152;19.432;2023-03-13T07:59:03;100273.44;;;3.58;81.10
66742;BME280;53654;54.152;19.432;2023-03-13T08:01:32;100264.51;;;3.62;80.95
66742;BME280;53654;54.152;19.432;2023-03-13T08:04:00;100260.05;;;3.64;80.89
66742;BME280;53654;54.152;19.432;2023-03-13T08:06:30;100255.95;;;3.68;81.18
66742;BME280;53654;54.152;19.432;2023-03-13T08:09:02;100255.41;;;3.66;81.29
66742;BME280;53654;54.152;19.432;2023-03-13T08:11:31;100246.62;;;3.67;81.50
66742;BME280;53654;54.152;19.432;2023-03-13T08:13:59;100245.27;;;3.68;81.48
66742;BME280;53654;54.152;19.432;2023-03-13T08:16:29;100240.13;;;3.72;81.64
66742;BME280;53654;54.152;19.432;2023-03-13T08:19:00;100240.34;;;3.75;81.70
66742;BME280;53654;54.152;19.432;2023-03-13T08:21:31;100242.29;;;3.79;81.93
66742;BME280;53654;54.152;19.432;2023-03-13T08:24:03;100243.15;;;3.79;81.88
66742;BME280;53654;54.152;19.432;2023-03-13T08:26:34;100239.88;;;3.80;81.80
66742;BME280;53654;54.152;19.432;2023-03-13T08:29:06;100241.63;;;3.83;81.80
66742;BME280;53654;54.152;19.432;2023-03-13T08:31:36;100237.20;;;3.88;81.84
66742;BME280;53654;54.152;19.432;2023-03-13T08:34:04;100235.52;;;3.92;81.77
66742;BME280;53654;54.152;19.432;2023-03-13T08:36:35;100230.22;;;3.97;81.90
66742;BME280;53654;54.152;19.432;2023-03-13T08:39:06;100225.10;;;4.03;81.94
66742;BME280;53654;54.152;19.432;2023-03-13T08:41:36;100223.44;;;4.09;81.89
66742;BME280;53654;54.152;19.432;2023-03-13T08:44:10;100226.58;;;4.14;81.59
66742;BME280;53654;54.152;19.432;2023-03-13T08:46:39;100219.36;;;4.17;81.71
66742;BME280;53654;54.152;19.432;2023-03-13T08:49:08;100225.60;;;4.20;81.70
66742;BME280;53654;54.152;19.432;2023-03-13T08:51:36;100220.80;;;4.24;81.97
66742;BME280;53654;54.152;19.432;2023-03-13T08:54:04;100221.70;;;4.29;81.95
66742;BME280;53654;54.152;19.432;2023-03-13T08:56:33;100218.13;;;4.33;81.99
66742;BME280;53654;54.152;19.432;2023-03-13T08:59:04;100213.48;;;4.37;81.94
66742;BME280;53654;54.152;19.432;2023-03-13T09:01:33;100210.41;;;4.41;81.88
66742;BME280;53654;54.152;19.432;2023-03-13T09:04:03;100206.83;;;4.47;81.93
66742;BME280;53654;54.152;19.432;2023-03-13T09:06:33;100202.18;;;4.48;81.75
66742;BME280;53654;54.152;19.432;2023-03-13T09:09:03;100203.73;;;4.48;81.86
66742;BME280;53654;54.152;19.432;2023-03-13T09:11:32;100195.96;;;4.49;81.86
66742;BME280;53654;54.152;19.432;2023-03-13T09:14:00;100189.05;;;4.48;81.97
66742;BME280;53654;54.152;19.432;2023-03-13T09:16:30;100182.32;;;4.49;81.69
66742;BME280;53654;54.152;19.432;2023-03-13T09:18:59;100174.38;;;4.50;81.99
66742;BME280;53654;54.152;19.432;2023-03-13T09:21:33;100174.92;;;4.53;81.98
66742;BME280;53654;54.152;19.432;2023-03-13T09:24:01;100170.26;;;4.53;82.20
66742;BME280;53654;54.152;19.432;2023-03-13T09:26:29;100161.11;;;4.54;82.38
66742;BME280;53654;54.152;19.432;2023-03-13T09:28:58;100154.05;;;4.59;82.14
66742;BME280;53654;54.152;19.432;2023-03-13T09:31:30;100146.50;;;4.66;82.36
66742;BME280;53654;54.152;19.432;2023-03-13T09:33:59;100145.49;;;4.73;81.94
66742;BME280;53654;54.152;19.432;2023-03-13T09:36:27;100136.02;;;4.77;81.86
66742;BME280;53654;54.152;19.432;2023-03-13T09:38:57;100136.21;;;4.80;81.84
66742;BME280;53654;54.152;19.432;2023-03-13T09:57:41;100104.04;;;5.17;81.11
66742;BME280;53654;54.152;19.432;2023-03-13T10:00:26;100102.36;;;5.24;80.93
66742;BME280;53654;54.152;19.432;2023-03-13T10:05:49;100090.97;;;5.33;80.76
66742;BME280;53654;54.152;19.432;2023-03-13T10:08:22;100090.46;;;5.37;80.87
66742;BME280;53654;54.152;19.432;2023-03-13T10:16:37;100077.67;;;5.39;80.70
66742;BME280;53654;54.152;19.432;2023-03-13T10:19:18;100074.71;;;5.37;80.97
66742;BME280;53654;54.152;19.432;2023-03-13T10:21:52;100075.58;;;5.38;81.04
66742;BME280;53654;54.152;19.432;2023-03-13T10:24:36;100069.71;;;5.41;81.16
66742;BME280;53654;54.152;19.432;2023-03-13T10:27:08;100063.48;;;5.41;81.40
66742;BME280;53654;54.152;19.432;2023-03-13T10:29:36;100057.27;;;5.44;81.71
66742;BME280;53654;54.152;19.432;2023-03-13T10:32:07;100051.91;;;5.51;81.62
66742;BME280;53654;54.152;19.432;2023-03-13T10:37:20;100039.45;;;5.58;81.47
66742;BME280;53654;54.152;19.432;2023-03-13T10:39:49;100034.27;;;5.60;81.49
66742;BME280;53654;54.152;19.432;2023-03-13T10:42:42;100024.05;;;5.63;81.72
66742;BME280;53654;54.152;19.432;2023-03-13T10:45:16;100016.79;;;5.65;81.69
66742;BME280;53654;54.152;19.432;2023-03-13T10:47:53;100007.09;;;5.69;81.71
66742;BME280;53654;54.152;19.432;2023-03-13T10:50:24;100005.36;;;5.76;81.67
66742;BME280;53654;54.152;19.432;2023-03-13T10:52:53;100004.32;;;5.80;81.95
66742;BME280;53654;54.152;19.432;2023-03-13T10:55:23;99999.13;;;5.80;81.99
66742;BME280;53654;54.152;19.432;2023-03-13T11:02:56;99982.86;;;5.87;82.43
66742;BME280;53654;54.152;19.432;2023-03-13T11:08:40;99971.95;;;5.97;82.67
66742;BME280;53654;54.152;19.432;2023-03-13T11:11:19;99962.95;;;5.96;82.86
66742;BME280;53654;54.152;19.432;2023-03-13T11:13:47;99952.04;;;5.99;83.01
66742;BME280;53654;54.152;19.432;2023-03-13T11:16:18;99944.93;;;6.03;83.28
66742;BME280;53654;54.152;19.432;2023-03-13T11:27:30;99931.75;;;6.10;83.13
66742;BME280;53654;54.152;19.432;2023-03-13T11:32:39;99916.31;;;6.18;83.52
66742;BME280;53654;54.152;19.432;2023-03-13T11:38:18;99897.95;;;6.20;84.03
66742;BME280;53654;54.152;19.432;2023-03-13T11:49:28;99878.36;;;6.22;84.42
66742;BME280;53654;54.152;19.432;2023-03-13T12:05:59;99846.62;;;6.31;85.53
66742;BME280;53654;54.152;19.432;2023-03-13T12:08:29;99839.52;;;6.30;85.97
66742;BME280;53654;54.152;19.432;2023-03-13T12:13:59;99824.95;;;6.35;85.95
66742;BME280;53654;54.152;19.432;2023-03-13T12:19:29;99810.55;;;6.38;86.15
66742;BME280;53654;54.152;19.432;2023-03-13T12:22:07;99803.09;;;6.41;86.29
66742;BME280;53654;54.152;19.432;2023-03-13T12:24:59;99792.32;;;6.44;86.48
66742;BME280;53654;54.152;19.432;2023-03-13T12:27:34;99786.76;;;6.45;86.47
66742;BME280;53654;54.152;19.432;2023-03-13T12:30:18;99776.00;;;6.48;86.80
66742;BME280;53654;54.152;19.432;2023-03-13T12:33:03;99769.41;;;6.49;86.82
66742;BME280;53654;54.152;19.432;2023-03-13T12:35:34;99768.86;;;6.52;87.18
66742;BME280;53654;54.152;19.432;2023-03-13T12:38:18;99764.17;;;6.55;87.12
66742;BME280;53654;54.152;19.432;2023-03-13T12:41:14;99757.92;;;6.56;87.08
66742;BME280;53654;54.152;19.432;2023-03-13T12:43:51;99753.24;;;6.56;87.20
66742;BME280;53654;54.152;19.432;2023-03-13T12:46:47;99744.23;;;6.57;87.67
66742;BME280;53654;54.152;19.432;2023-03-13T13:00:43;99704.93;;;6.72;88.14
66742;BME280;53654;54.152;19.432;2023-03-13T13:06:03;99685.64;;;6.77;88.33
66742;BME280;53654;54.152;19.432;2023-03-13T13:08:36;99674.70;;;6.78;88.28
66742;BME280;53654;54.152;19.432;2023-03-13T13:14:04;99663.38;;;6.85;88.30
66742;BME280;53654;54.152;19.432;2023-03-13T13:19:43;99653.08;;;6.91;88.11
66742;BME280;53654;54.152;19.432;2023-03-13T13:32:48;99638.17;;;7.05;87.49
66742;BME280;53654;54.152;19.432;2023-03-13T13:37:45;99628.88;;;7.13;87.60
66742;BME280;53654;54.152;19.432;2023-03-13T13:43:01;99621.67;;;7.21;87.22
66742;BME280;53654;54.152;19.432;2023-03-13T13:46:00;99609.67;;;7.24;87.19
66742;BME280;53654;54.152;19.432;2023-03-13T13:48:31;99601.81;;;7.28;87.33
66742;BME280;53654;54.152;19.432;2023-03-13T13:56:50;99585.52;;;7.40;87.65
66742;BME280;53654;54.152;19.432;2023-03-13T14:02:13;99583.82;;;7.49;88.15
66742;BME280;53654;54.152;19.432;2023-03-13T14:07:24;99575.25;;;7.54;88.15
66742;BME280;53654;54.152;19.432;2023-03-13T14:10:15;99571.02;;;7.57;88.17
66742;BME280;53654;54.152;19.432;2023-03-13T14:12:54;99568.74;;;7.60;88.17
66742;BME280;53654;54.152;19.432;2023-03-13T14:15:30;99562.65;;;7.60;88.15
66742;BME280;53654;54.152;19.432;2023-03-13T14:18:09;99558.17;;;7.59;88.31
66742;BME280;53654;54.152;19.432;2023-03-13T14:20:51;99551.02;;;7.61;88.39
66742;BME280;53654;54.152;19.432;2023-03-13T14:28:39;99536.27;;;7.72;88.65
66742;BME280;53654;54.152;19.432;2023-03-13T14:31:09;99543.81;;;7.77;88.50
66742;BME280;53654;54.152;19.432;2023-03-13T14:33:39;99546.14;;;7.83;88.17
66742;BME280;53654;54.152;19.432;2023-03-13T14:36:07;99542.92;;;7.89;87.83
66742;BME280;53654;54.152;19.432;2023-03-13T14:38:36;99539.55;;;7.94;87.49
66742;BME280;53654;54.152;19.432;2023-03-13T14:41:05;99535.16;;;7.96;87.29
66742;BME280;53654;54.152;19.432;2023-03-13T14:43:35;99536.48;;;8.00;87.24
66742;BME280;53654;54.152;19.432;2023-03-13T14:46:21;99529.53;;;8.00;87.23
66742;BME280;53654;54.152;19.432;2023-03-13T14:48:55;99522.90;;;8.02;87.28
66742;BME280;53654;54.152;19.432;2023-03-13T14:51:25;99525.30;;;8.04;87.44
66742;BME280;53654;54.152;19.432;2023-03-13T14:57:00;99521.30;;;8.14;87.33
66742;BME280;53654;54.152;19.432;2023-03-13T14:59:28;99517.82;;;8.15;87.00
66742;BME280;53654;54.152;19.432;2023-03-13T15:04:59;99503.14;;;8.19;86.92
66742;BME280;53654;54.152;19.432;2023-03-13T15:07:52;99505.35;;;8.22;86.94
66742;BME280;53654;54.152;19.432;2023-03-13T15:10:32;99504.81;;;8.23;87.07
66742;BME280;53654;54.152;19.432;2023-03-13T15:15:46;99495.30;;;8.30;87.17
66742;BME280;53654;54.152;19.432;2023-03-13T15:18:19;99494.15;;;8.36;87.13
66742;BME280;53654;54.152;19.432;2023-03-13T15:20:58;99494.94;;;8.41;86.81
66742;BME280;53654;54.152;19.432;2023-03-13T15:23:37;99493.66;;;8.44;86.95
66742;BME280;53654;54.152;19.432;2023-03-13T15:26:05;99485.54;;;8.50;86.92
66742;BME280;53654;54.152;19.432;2023-03-13T15:28:33;99482.45;;;8.57;86.81
66742;BME280;53654;54.152;19.432;2023-03-13T15:31:01;99477.63;;;8.63;86.75
66742;BME280;53654;54.152;19.432;2023-03-13T15:33:30;99476.47;;;8.68;86.74
66742;BME280;53654;54.152;19.432;2023-03-13T15:35:58;99481.05;;;8.74;86.70
66742;BME280;53654;54.152;19.432;2023-03-13T15:38:26;99480.42;;;8.79;86.86
66742;BME280;53654;54.152;19.432;2023-03-13T15:40:54;99482.73;;;8.84;86.81
66742;BME280;53654;54.152;19.432;2023-03-13T15:43:23;99481.98;;;8.88;86.79
66742;BME280;53654;54.152;19.432;2023-03-13T15:45:51;99479.09;;;8.92;86.80
66742;BME280;53654;54.152;19.432;2023-03-13T15:48:22;99478.67;;;8.96;86.86
66742;BME280;53654;54.152;19.432;2023-03-13T15:50:52;99476.98;;;9.00;86.87